If you wish to contribute or participate in the discussions about articles you are invited to join SKYbrary as a registered user

 Actions

Catania-Fontanarossa Airport

From SKYbrary Wiki

LICC
Airport
ICAO: LICC – IATA: CTA
Summary
Name Catania-Fontanarossa Airport
Region Europe
Territory Italy IT.gif
Location Catania, Sicilia
Serving Catania
Elevation 11.887 m <br />39 ft <br />39 ft11.887 m <br />
Type large airport
Coordinates 37° 28' 0.41" N, 15° 3' 59.04" E
Runways
Designator Length Width Surface ROPS
8/26 2435 m7,988.845 ft <br /> 45 m147.638 ft <br /> ASP yes/yes


METAR
Observation LICC 162150Z 08020KT CAVOK 14/06 Q1009
Station Catania / Fontanarossa
Date/Time 16 April 2021 21:50:00
Wind direction 80°
Wind speed 20 kts
Lowest cloud amount clouds and visibility OK
Temperature 14°C
Dew point 6°C
Humidity 58%
QNH 1009 hPa
Weather condition n/a

Maps

Terrain

Loading map...

Airport Layout

Loading map...


Accidents & Serious Incidents at or in vicinity of LICC

None on SKYbrary